Time;durP1;ratioP1;P1;durP2;ratioP2;P2;SDS_P1;SDS_P2;PMS_P1;PMS_P2;Temp;Humidity;BMP_temperature;BMP_pressure;BME280_temperature;BME280_humidity;BME280_pressure;Samples;Min_cycle;Max_cycle;Signal;HPM_P1;HPM_P2
2023/05/12 00:01:29;;;;;;;7.15;3.60;;;12.00;99.90;;;;;;5036035;28;20085;-35
2023/05/12 00:03:54;;;;;;;7.50;3.58;;;12.00;99.90;;;;;;5035928;28;20041;-35
2023/05/12 00:06:20;;;;;;;8.07;3.65;;;12.00;99.90;;;;;;5035834;28;20057;-35
2023/05/12 00:08:46;;;;;;;7.15;3.47;;;12.00;99.90;;;;;;5026269;28;20098;-35
2023/05/12 00:11:12;;;;;;;7.75;3.85;;;11.90;99.90;;;;;;5032520;28;20052;-35
2023/05/12 00:13:38;;;;;;;8.15;3.95;;;11.90;99.90;;;;;;5032464;28;20105;-35
2023/05/12 00:16:04;;;;;;;7.35;3.95;;;12.00;99.90;;;;;;5035016;28;20056;-35
2023/05/12 00:18:30;;;;;;;7.32;3.75;;;11.90;99.90;;;;;;5028298;28;20489;-35
2023/05/12 00:20:56;;;;;;;8.23;4.32;;;12.00;99.90;;;;;;5028325;28;20053;-35
2023/05/12 00:23:22;;;;;;;7.68;4.05;;;12.00;99.90;;;;;;5028926;28;20465;-35
2023/05/12 00:25:48;;;;;;;8.30;4.07;;;12.00;99.90;;;;;;5035571;28;20452;-35
2023/05/12 00:28:14;;;;;;;8.88;4.13;;;12.00;99.90;;;;;;5034452;28;20072;-35
2023/05/12 00:30:39;;;;;;;8.68;4.43;;;12.00;99.90;;;;;;5028437;28;20045;-35
2023/05/12 00:33:05;;;;;;;6.82;3.67;;;12.00;99.90;;;;;;5034951;28;20067;-35
2023/05/12 00:35:30;;;;;;;8.40;4.50;;;12.00;99.90;;;;;;5037225;28;20044;-35
2023/05/12 00:37:56;;;;;;;9.25;4.60;;;12.00;99.90;;;;;;5035877;28;20047;-36
2023/05/12 00:40:22;;;;;;;8.60;4.35;;;12.00;99.90;;;;;;5029566;28;20110;-35
2023/05/12 00:42:48;;;;;;;6.97;3.95;;;11.90;99.90;;;;;;5037202;28;20041;-35
2023/05/12 00:45:14;;;;;;;7.82;3.80;;;11.90;99.90;;;;;;5034489;28;20056;-35
2023/05/12 00:47:40;;;;;;;7.88;4.20;;;11.90;99.90;;;;;;5035610;28;20127;-35
2023/05/12 00:50:07;;;;;;;7.95;3.95;;;11.90;99.90;;;;;;5033599;28;20072;-35
2023/05/12 00:52:34;;;;;;;6.03;2.90;;;11.90;99.90;;;;;;5031934;28;20052;-35
2023/05/12 00:55:01;;;;;;;6.63;2.92;;;11.90;99.90;;;;;;5030964;28;20049;-35
2023/05/12 00:57:26;;;;;;;5.82;2.97;;;11.90;99.90;;;;;;5031932;28;20098;-35
2023/05/12 00:59:53;;;;;;;6.45;2.95;;;11.90;99.90;;;;;;5030677;28;20074;-35
2023/05/12 01:02:20;;;;;;;6.90;3.72;;;11.90;99.90;;;;;;5035273;28;20089;-35
2023/05/12 01:04:46;;;;;;;6.95;3.50;;;12.00;99.90;;;;;;5033597;28;20140;-35
2023/05/12 01:07:18;;;;;;;5.60;2.58;;;12.00;99.90;;;;;;5032614;28;20115;-35
2023/05/12 01:09:44;;;;;;;8.88;3.47;;;11.90;99.90;;;;;;5035680;28;20415;-35
2023/05/12 01:12:09;;;;;;;5.38;2.85;;;12.00;99.90;;;;;;5038875;28;20056;-35
2023/05/12 01:14:35;;;;;;;6.72;3.10;;;12.00;99.90;;;;;;5031219;28;20431;-35
2023/05/12 01:17:04;;;;;;;4.63;2.47;;;11.90;99.90;;;;;;5030099;28;20128;-35
2023/05/12 01:19:48;;;;;;;7.00;2.40;;;11.90;99.90;;;;;;5038920;28;20048;-35
2023/05/12 01:22:15;;;;;;;9.13;3.00;;;11.90;99.90;;;;;;5034749;28;20172;-35
2023/05/12 01:24:53;;;;;;;6.28;3.03;;;11.90;99.90;;;;;;5033264;28;20061;-35
2023/05/12 01:27:20;;;;;;;6.82;2.55;;;11.90;99.90;;;;;;5031580;28;20526;-35
2023/05/12 01:29:47;;;;;;;8.05;2.67;;;12.00;99.90;;;;;;5032786;28;20053;-35
2023/05/12 01:32:14;;;;;;;8.85;3.50;;;12.00;99.90;;;;;;5032892;28;20144;-35
2023/05/12 01:34:41;;;;;;;7.55;2.83;;;12.00;99.90;;;;;;5035238;28;20429;-35
2023/05/12 01:37:08;;;;;;;7.18;3.13;;;12.00;99.90;;;;;;5031483;28;20049;-35
2023/05/12 01:39:34;;;;;;;7.45;3.33;;;12.00;99.90;;;;;;5036491;28;20083;-35
2023/05/12 01:42:00;;;;;;;6.55;3.08;;;12.00;99.90;;;;;;5037310;28;20049;-35
2023/05/12 01:44:25;;;;;;;9.10;3.58;;;12.00;99.90;;;;;;5033278;28;20052;-35
2023/05/12 01:46:51;;;;;;;10.55;3.97;;;12.00;99.90;;;;;;5035679;28;20151;-35
2023/05/12 01:49:17;;;;;;;13.00;4.43;;;12.00;99.90;;;;;;5034567;28;20152;-35
2023/05/12 01:51:42;;;;;;;9.95;4.72;;;12.00;99.90;;;;;;5036748;28;20415;-35
2023/05/12 01:54:08;;;;;;;9.27;4.65;;;12.00;99.90;;;;;;5034994;28;20049;-35
2023/05/12 01:56:33;;;;;;;12.70;5.88;;;12.00;99.90;;;;;;5036626;28;20045;-35
2023/05/12 01:58:59;;;;;;;12.02;6.40;;;12.00;99.90;;;;;;5032430;28;20548;-35
2023/05/12 02:01:27;;;;;;;12.30;5.05;;;12.00;99.90;;;;;;5033747;28;20049;-35
2023/05/12 02:03:54;;;;;;;14.07;6.50;;;12.00;99.90;;;;;;5031455;28;20199;-35
2023/05/12 02:06:21;;;;;;;13.80;6.68;;;12.00;99.90;;;;;;5031453;28;20056;-35
2023/05/12 02:08:46;;;;;;;12.30;6.05;;;12.00;99.90;;;;;;5027895;28;20118;-35
2023/05/12 02:11:12;;;;;;;14.45;6.95;;;12.00;99.90;;;;;;5036567;28;20048;-35
2023/05/12 02:13:38;;;;;;;13.10;6.75;;;12.00;99.90;;;;;;5031060;28;20105;-35
2023/05/12 02:16:04;;;;;;;18.05;7.50;;;12.00;99.90;;;;;;5036150;28;20114;-35
2023/05/12 02:18:29;;;;;;;17.13;8.73;;;12.00;99.90;;;;;;5029847;28;20053;-35
2023/05/12 02:20:55;;;;;;;24.73;9.02;;;12.00;99.90;;;;;;5034961;28;20194;-35
2023/05/12 02:23:21;;;;;;;18.90;8.75;;;12.00;99.90;;;;;;5032496;28;20053;-35
2023/05/12 02:25:46;;;;;;;19.50;9.55;;;12.00;99.90;;;;;;5041802;28;20049;-35
2023/05/12 02:28:12;;;;;;;20.77;8.45;;;12.00;99.90;;;;;;5033838;28;20049;-35
2023/05/12 02:30:38;;;;;;;21.55;10.75;;;12.00;99.90;;;;;;5035463;28;20076;-35
2023/05/12 02:33:06;;;;;;;19.90;7.75;;;12.00;99.90;;;;;;5031614;28;20049;-35
2023/05/12 02:35:32;;;;;;;24.65;10.27;;;12.00;99.90;;;;;;5032899;28;20411;-35
2023/05/12 02:37:57;;;;;;;23.73;10.60;;;12.00;99.90;;;;;;5032765;28;20044;-35
2023/05/12 02:40:23;;;;;;;22.52;9.35;;;12.00;99.90;;;;;;5032717;28;20081;-35
2023/05/12 02:42:48;;;;;;;22.85;10.02;;;12.00;99.90;;;;;;5034429;28;20056;-35
2023/05/12 02:45:14;;;;;;;22.88;11.10;;;12.00;99.90;;;;;;5031904;28;20057;-35
2023/05/12 02:47:40;;;;;;;23.65;10.68;;;12.10;99.90;;;;;;5032192;28;20053;-35
2023/05/12 02:50:06;;;;;;;23.85;10.40;;;12.00;99.90;;;;;;5032620;28;20037;-35
2023/05/12 02:52:32;;;;;;;20.65;9.48;;;12.00;99.90;;;;;;5028621;28;20080;-35
2023/05/12 02:54:57;;;;;;;20.88;9.80;;;12.10;99.90;;;;;;5029341;28;20042;-35
2023/05/12 02:57:25;;;;;;;26.08;11.13;;;12.00;99.90;;;;;;5032249;28;20045;-35
2023/05/12 02:59:50;;;;;;;24.42;11.43;;;12.10;99.90;;;;;;5030161;28;20048;-35
2023/05/12 03:02:16;;;;;;;26.45;12.07;;;12.10;99.90;;;;;;5034267;28;20049;-35
2023/05/12 03:04:41;;;;;;;28.83;12.07;;;12.10;99.90;;;;;;5037268;28;20045;-35
2023/05/12 03:07:08;;;;;;;21.83;11.48;;;12.10;99.90;;;;;;5033789;28;20045;-35
2023/05/12 03:09:34;;;;;;;32.47;12.18;;;12.10;99.90;;;;;;5030575;28;20637;-35
2023/05/12 03:11:59;;;;;;;28.35;11.70;;;12.10;99.90;;;;;;5030113;28;20165;-35
2023/05/12 03:14:27;;;;;;;25.33;11.63;;;12.10;99.90;;;;;;5031362;28;20045;-35
2023/05/12 03:16:53;;;;;;;31.75;11.43;;;12.10;99.90;;;;;;5030933;28;21039;-35
2023/05/12 03:19:18;;;;;;;22.40;10.00;;;12.10;99.90;;;;;;5031012;28;20049;-35
2023/05/12 03:21:44;;;;;;;26.40;10.75;;;12.10;99.90;;;;;;5033327;28;20048;-35
2023/05/12 03:24:09;;;;;;;25.02;10.77;;;12.10;99.90;;;;;;5036007;28;20200;-35
2023/05/12 03:26:35;;;;;;;22.75;11.15;;;12.20;99.90;;;;;;5028173;28;20061;-35
2023/05/12 03:29:00;;;;;;;23.55;10.73;;;12.20;99.90;;;;;;5031030;28;20057;-35
2023/05/12 03:31:26;;;;;;;21.25;10.80;;;12.20;99.90;;;;;;5028174;28;20049;-36
2023/05/12 03:33:52;;;;;;;32.22;12.80;;;12.20;99.90;;;;;;5030437;28;20126;-35
2023/05/12 03:36:17;;;;;;;31.73;13.00;;;12.20;99.90;;;;;;5030480;28;20392;-35
2023/05/12 03:38:43;;;;;;;31.75;12.55;;;12.20;99.90;;;;;;5034326;28;20048;-35
2023/05/12 03:41:09;;;;;;;23.02;9.45;;;12.20;99.90;;;;;;5031808;28;20080;-35
2023/05/12 03:43:34;;;;;;;23.33;11.65;;;12.20;99.90;;;;;;5032334;28;20202;-35
2023/05/12 03:46:00;;;;;;;23.35;10.32;;;12.20;99.90;;;;;;5021399;28;20049;-35
2023/05/12 03:48:26;;;;;;;26.00;12.05;;;12.20;99.90;;;;;;5008201;28;20050;-35
2023/05/12 03:50:51;;;;;;;28.95;11.55;;;12.30;99.90;;;;;;5022279;28;20080;-35
2023/05/12 03:53:17;;;;;;;26.40;13.07;;;12.30;99.90;;;;;;5020473;28;20144;-35
2023/05/12 03:55:43;;;;;;;26.80;12.20;;;12.30;99.90;;;;;;5018315;28;20132;-35
2023/05/12 03:58:08;;;;;;;26.70;12.70;;;12.30;99.90;;;;;;5017140;28;20170;-35
2023/05/12 04:00:34;;;;;;;24.25;10.02;;;12.30;99.90;;;;;;5010771;28;20056;-35
2023/05/12 04:03:00;;;;;;;23.67;12.38;;;12.30;99.90;;;;;;5026484;28;20396;-35
2023/05/12 04:05:25;;;;;;;23.02;11.32;;;12.30;99.90;;;;;;5020568;28;20057;-35
2023/05/12 04:07:51;;;;;;;29.15;12.02;;;12.30;99.90;;;;;;5027643;28;20487;-35
2023/05/12 04:10:17;;;;;;;28.40;13.57;;;12.30;99.90;;;;;;5028594;28;20057;-35
2023/05/12 04:12:42;;;;;;;25.77;12.20;;;12.30;99.90;;;;;;5021343;28;20053;-35
2023/05/12 04:15:08;;;;;;;26.13;12.30;;;12.30;99.90;;;;;;5034178;28;20460;-35
2023/05/12 04:17:34;;;;;;;24.08;11.88;;;12.30;99.90;;;;;;5041875;28;20060;-35
2023/05/12 04:20:00;;;;;;;28.50;13.15;;;12.30;99.90;;;;;;5029970;28;20061;-35
2023/05/12 04:22:26;;;;;;;26.00;12.00;;;12.30;99.90;;;;;;5029585;28;20045;-35
2023/05/12 04:24:51;;;;;;;26.20;12.77;;;12.30;99.90;;;;;;5036747;28;20701;-35
2023/05/12 04:27:17;;;;;;;27.27;11.73;;;12.30;99.90;;;;;;5018711;28;20341;-35
2023/05/12 04:29:43;;;;;;;30.02;12.73;;;12.40;99.90;;;;;;5027194;28;20061;-35
2023/05/12 04:32:08;;;;;;;28.80;12.27;;;12.40;99.90;;;;;;5031166;28;20042;-35
2023/05/12 04:34:34;;;;;;;28.95;11.77;;;12.40;99.90;;;;;;5029672;28;20045;-35
2023/05/12 04:37:00;;;;;;;21.70;10.70;;;12.40;99.90;;;;;;5036549;28;20122;-35
2023/05/12 04:39:27;;;;;;;32.58;12.88;;;12.40;99.90;;;;;;5037235;28;20049;-35
2023/05/12 04:41:52;;;;;;;24.02;12.02;;;12.40;99.90;;;;;;5031047;28;20037;-35
2023/05/12 04:44:18;;;;;;;25.67;12.95;;;12.40;99.90;;;;;;5020689;28;20095;-35
2023/05/12 04:46:44;;;;;;;31.70;12.75;;;12.50;99.90;;;;;;5029527;28;20049;-35
2023/05/12 04:49:10;;;;;;;24.05;11.95;;;12.50;99.90;;;;;;5046200;28;20491;-35
2023/05/12 04:51:41;;;;;;;26.42;11.82;;;12.50;99.90;;;;;;5028515;28;20057;-35
2023/05/12 04:54:09;;;;;;;22.98;10.50;;;12.50;99.90;;;;;;5023619;28;20558;-35
2023/05/12 04:56:34;;;;;;;28.08;13.25;;;12.50;99.90;;;;;;5030032;28;20053;-35
2023/05/12 04:59:00;;;;;;;22.77;11.68;;;12.60;99.90;;;;;;5028388;28;20617;-35
2023/05/12 05:01:26;;;;;;;22.10;12.45;;;12.60;99.90;;;;;;5023363;28;20389;-35
2023/05/12 05:03:51;;;;;;;26.63;12.45;;;12.70;99.90;;;;;;5040707;28;20053;-35
2023/05/12 05:06:17;;;;;;;25.45;12.02;;;12.60;99.90;;;;;;5030470;28;20123;-35
2023/05/12 05:08:43;;;;;;;30.30;12.65;;;12.70;99.90;;;;;;5035693;28;20118;-35
2023/05/12 05:11:08;;;;;;;25.23;11.82;;;12.70;99.90;;;;;;5042714;28;20098;-35
2023/05/12 05:13:34;;;;;;;25.17;11.70;;;12.80;99.90;;;;;;5045080;28;20563;-35
2023/05/12 05:16:00;;;;;;;24.83;11.57;;;12.80;99.90;;;;;;5033802;28;20045;-35
2023/05/12 05:18:26;;;;;;;24.02;11.52;;;12.80;99.90;;;;;;5015766;28;20080;-35
2023/05/12 05:20:52;;;;;;;20.83;10.35;;;12.80;99.90;;;;;;5039454;28;20053;-35
2023/05/12 05:23:17;;;;;;;25.80;12.27;;;12.80;99.90;;;;;;5028691;28;20455;-35
2023/05/12 05:25:43;;;;;;;25.02;11.95;;;12.80;99.90;;;;;;5024219;28;20053;-35
2023/05/12 05:28:09;;;;;;;22.38;10.65;;;12.90;99.90;;;;;;5033202;28;20422;-35
2023/05/12 05:30:35;;;;;;;22.52;10.70;;;12.90;99.90;;;;;;5022724;28;20080;-35
2023/05/12 05:33:00;;;;;;;23.50;12.07;;;12.90;99.90;;;;;;5023934;28;20433;-35
2023/05/12 05:35:26;;;;;;;22.83;11.88;;;13.00;99.90;;;;;;5032489;28;20056;-35
2023/05/12 05:37:53;;;;;;;22.45;11.88;;;13.00;99.90;;;;;;5046835;28;20075;-35
2023/05/12 05:40:19;;;;;;;22.80;11.57;;;13.10;99.90;;;;;;5024271;28;20053;-35
2023/05/12 05:42:44;;;;;;;20.00;11.73;;;13.10;99.90;;;;;;5023610;28;20406;-35
2023/05/12 05:45:10;;;;;;;23.80;11.35;;;13.10;99.90;;;;;;5039547;28;20122;-35
2023/05/12 05:47:36;;;;;;;24.42;10.90;;;13.20;99.90;;;;;;5028874;28;20659;-35
2023/05/12 05:50:05;;;;;;;21.15;10.45;;;13.30;99.90;;;;;;5045401;28;20048;-35
2023/05/12 05:52:31;;;;;;;22.38;11.48;;;13.30;99.90;;;;;;5043608;28;20678;-35
2023/05/12 05:54:57;;;;;;;23.75;11.10;;;13.30;99.90;;;;;;5032336;28;20155;-35
2023/05/12 05:57:22;;;;;;;19.38;9.45;;;13.40;99.90;;;;;;5040842;28;20049;-35
2023/05/12 05:59:48;;;;;;;25.15;11.95;;;13.40;99.90;;;;;;5026707;28;20503;-35
2023/05/12 06:02:14;;;;;;;18.23;9.93;;;13.40;99.90;;;;;;5012640;28;20053;-35
2023/05/12 06:04:39;;;;;;;18.15;10.43;;;13.40;99.90;;;;;;5023013;28;20053;-35
2023/05/12 06:07:05;;;;;;;19.40;9.30;;;13.50;99.90;;;;;;5040169;28;20052;-36
2023/05/12 06:09:31;;;;;;;23.73;10.88;;;13.50;99.90;;;;;;5029570;28;20061;-35
2023/05/12 06:11:57;;;;;;;26.50;12.48;;;13.50;99.90;;;;;;5024425;28;20049;-35
2023/05/12 06:14:22;;;;;;;20.48;11.18;;;13.60;99.90;;;;;;5022658;28;20060;-36
2023/05/12 06:16:48;;;;;;;26.40;11.60;;;13.60;99.90;;;;;;5031225;28;20069;-35
2023/05/12 06:19:14;;;;;;;22.02;11.63;;;13.60;99.90;;;;;;5014907;28;20050;-35
2023/05/12 06:21:40;;;;;;;19.10;9.63;;;13.70;99.90;;;;;;5018899;28;20052;-35
2023/05/12 06:24:06;;;;;;;17.60;9.68;;;13.70;99.90;;;;;;5022338;28;20049;-35
2023/05/12 06:26:31;;;;;;;20.77;11.43;;;13.70;99.90;;;;;;5034939;28;20053;-36
2023/05/12 06:28:57;;;;;;;20.27;11.07;;;13.80;99.90;;;;;;5025685;28;20095;-35
2023/05/12 06:31:23;;;;;;;17.73;9.80;;;13.80;99.90;;;;;;5027837;28;20057;-35
2023/05/12 06:33:48;;;;;;;18.50;10.20;;;13.80;99.90;;;;;;5031250;28;20136;-35
2023/05/12 06:36:14;;;;;;;24.00;12.20;;;13.90;99.90;;;;;;5032494;28;20049;-35
2023/05/12 06:38:40;;;;;;;20.35;11.85;;;14.00;99.90;;;;;;5011666;28;20056;-36
2023/05/12 06:41:05;;;;;;;23.30;11.57;;;14.00;99.90;;;;;;5014707;28;20085;-35
2023/05/12 06:43:31;;;;;;;22.35;11.02;;;14.00;99.90;;;;;;5009606;28;20812;-36
2023/05/12 06:45:56;;;;;;;20.42;11.50;;;14.10;99.90;;;;;;5029478;28;20053;-35
2023/05/12 06:48:23;;;;;;;21.45;10.93;;;14.10;99.90;;;;;;5031358;28;20064;-35
2023/05/12 06:50:48;;;;;;;21.27;10.93;;;14.10;99.90;;;;;;5025169;28;20096;-36
2023/05/12 06:53:14;;;;;;;24.95;12.43;;;14.10;99.90;;;;;;5033286;28;20053;-37
2023/05/12 06:55:42;;;;;;;19.15;10.75;;;14.20;99.90;;;;;;5027166;28;20118;-36
2023/05/12 06:58:07;;;;;;;21.50;11.15;;;14.20;99.90;;;;;;5035745;28;20065;-35
2023/05/12 07:00:34;;;;;;;22.17;11.48;;;14.20;99.90;;;;;;5023580;28;20054;-36
2023/05/12 07:02:59;;;;;;;19.88;10.85;;;14.30;99.90;;;;;;5028630;28;20095;-36
2023/05/12 07:05:25;;;;;;;21.52;11.77;;;14.30;99.90;;;;;;5023566;28;20445;-36
2023/05/12 07:07:51;;;;;;;19.67;11.15;;;14.40;99.90;;;;;;5030968;28;20049;-36
2023/05/12 07:10:17;;;;;;;18.65;10.68;;;14.40;99.90;;;;;;5017650;28;20076;-35
2023/05/12 07:12:44;;;;;;;20.30;10.45;;;14.50;99.90;;;;;;5021614;28;20133;-36
2023/05/12 07:15:10;;;;;;;19.70;11.00;;;14.60;99.90;;;;;;5028943;28;20125;-36
2023/05/12 07:17:35;;;;;;;19.50;11.43;;;14.70;99.90;;;;;;5010372;28;20057;-36
2023/05/12 07:20:01;;;;;;;18.58;10.77;;;14.80;99.90;;;;;;5020107;28;20053;-36
2023/05/12 07:22:28;;;;;;;18.33;10.45;;;14.90;99.90;;;;;;5035732;28;20575;-36
2023/05/12 07:24:53;;;;;;;18.52;10.00;;;14.90;99.90;;;;;;5008245;28;20053;-36
2023/05/12 07:27:19;;;;;;;20.30;10.20;;;14.90;99.90;;;;;;5038177;28;20419;-36
2023/05/12 07:29:45;;;;;;;18.20;9.55;;;15.00;99.90;;;;;;5043461;28;20090;-36
2023/05/12 07:32:11;;;;;;;17.65;9.07;;;15.00;99.90;;;;;;5028217;28;20049;-36
2023/05/12 07:34:37;;;;;;;18.20;9.18;;;15.10;99.90;;;;;;5031037;28;20041;-36
2023/05/12 07:37:05;;;;;;;19.10;10.30;;;15.20;99.90;;;;;;5020237;28;20037;-36
2023/05/12 07:39:31;;;;;;;16.23;9.38;;;15.30;99.90;;;;;;5014383;28;20072;-36
2023/05/12 07:41:57;;;;;;;16.05;8.77;;;15.40;99.90;;;;;;5028686;28;20054;-36
2023/05/12 07:44:23;;;;;;;15.77;9.20;;;15.50;99.90;;;;;;5015311;28;20073;-36
2023/05/12 07:46:49;;;;;;;16.77;9.77;;;15.60;99.90;;;;;;5010607;28;20071;-36
2023/05/12 07:49:14;;;;;;;18.52;9.48;;;15.70;99.90;;;;;;5024428;28;21024;-37
2023/05/12 07:51:40;;;;;;;16.35;9.35;;;15.70;99.90;;;;;;5019151;28;20603;-36
2023/05/12 07:54:06;;;;;;;16.60;9.73;;;15.80;99.90;;;;;;5032663;28;20071;-36
2023/05/12 07:56:32;;;;;;;18.77;9.98;;;15.90;99.90;;;;;;5021608;28;20045;-36
2023/05/12 07:58:57;;;;;;;17.30;8.77;;;15.90;99.90;;;;;;5014390;28;20076;-36
2023/05/12 08:01:23;;;;;;;17.20;10.00;;;16.00;99.90;;;;;;5022987;28;20046;-36
2023/05/12 08:03:50;;;;;;;16.95;9.18;;;16.10;99.90;;;;;;5020515;28;20045;-37
2023/05/12 08:06:16;;;;;;;16.02;8.98;;;16.20;99.90;;;;;;5029015;28;20155;-37
2023/05/12 08:08:42;;;;;;;16.90;9.88;;;16.30;99.90;;;;;;5036917;28;20114;-37
2023/05/12 08:11:08;;;;;;;19.85;10.05;;;16.40;99.90;;;;;;5036694;28;20055;-36
2023/05/12 08:13:38;;;;;;;17.20;10.25;;;16.40;99.90;;;;;;5021284;28;20132;-37
2023/05/12 08:16:04;;;;;;;18.48;10.45;;;16.60;99.90;;;;;;5034162;28;20073;-37
2023/05/12 08:18:30;;;;;;;18.83;9.98;;;16.60;99.90;;;;;;5042604;28;20458;-36
2023/05/12 08:20:55;;;;;;;18.30;9.38;;;16.70;99.90;;;;;;5020403;28;20049;-37
2023/05/12 08:23:21;;;;;;;18.42;10.20;;;16.60;99.90;;;;;;5028366;28;20449;-37
2023/05/12 08:25:47;;;;;;;16.77;9.95;;;16.60;99.90;;;;;;5033410;28;20487;-37
2023/05/12 08:28:13;;;;;;;16.80;8.90;;;16.60;99.90;;;;;;5028931;28;20088;-37
2023/05/12 08:30:43;;;;;;;16.77;10.10;;;16.60;99.90;;;;;;5022317;28;20136;-37
2023/05/12 08:33:09;;;;;;;16.00;10.02;;;16.60;99.90;;;;;;5028554;28;20136;-37
2023/05/12 08:35:35;;;;;;;16.10;9.13;;;16.70;99.90;;;;;;5023350;28;20566;-37
2023/05/12 08:38:01;;;;;;;16.52;9.40;;;16.70;99.90;;;;;;5038909;28;20045;-37
2023/05/12 08:40:30;;;;;;;16.67;7.97;;;16.70;99.90;;;;;;5031847;28;20072;-37
2023/05/12 08:43:20;;;;;;;15.10;8.10;;;16.80;99.90;;;;;;5037948;28;20683;-37
2023/05/12 08:45:47;;;;;;;13.88;8.70;;;16.90;99.90;;;;;;5028058;28;20077;-37
2023/05/12 08:48:14;;;;;;;17.17;10.50;;;17.00;99.90;;;;;;5028480;28;20072;-37
2023/05/12 08:50:41;;;;;;;14.32;8.95;;;17.00;99.90;;;;;;5032358;28;20502;-37
2023/05/12 08:53:11;;;;;;;16.70;9.13;;;17.10;99.90;;;;;;5012346;28;20393;-37
2023/05/12 08:55:40;;;;;;;15.63;9.30;;;17.10;99.90;;;;;;5027811;28;20041;-37
2023/05/12 08:58:07;;;;;;;15.35;9.18;;;17.20;99.90;;;;;;5039966;28;20041;-37
2023/05/12 09:00:35;;;;;;;15.85;8.95;;;17.40;99.90;;;;;;5027191;28;20049;-37
2023/05/12 09:03:04;;;;;;;15.35;8.13;;;17.50;99.90;;;;;;5022923;28;20042;-37
2023/05/12 09:05:30;;;;;;;17.30;9.23;;;17.60;99.90;;;;;;5017177;28;20076;-37
2023/05/12 09:07:57;;;;;;;15.90;8.75;;;17.70;99.90;;;;;;5035262;28;20052;-37
2023/05/12 09:10:25;;;;;;;16.13;9.10;;;17.70;99.90;;;;;;5036838;28;20057;-37
2023/05/12 09:13:03;;;;;;;14.27;8.43;;;17.80;99.90;;;;;;5032623;28;20162;-37
2023/05/12 09:15:37;;;;;;;16.15;10.60;;;17.90;99.90;;;;;;5023281;28;20392;-37
2023/05/12 09:18:03;;;;;;;15.73;9.60;;;18.10;99.90;;;;;;5027099;28;20417;-37
2023/05/12 09:20:28;;;;;;;13.48;8.45;;;18.20;99.90;;;;;;5036802;28;20115;-37
2023/05/12 09:22:57;;;;;;;13.65;7.90;;;18.30;99.90;;;;;;5014373;28;20084;-37
2023/05/12 09:25:22;;;;;;;13.85;8.85;;;18.40;99.90;;;;;;5026867;28;20073;-37
2023/05/12 09:27:55;;;;;;;16.33;9.20;;;18.40;99.90;;;;;;5024158;28;20597;-36
2023/05/12 09:30:30;;;;;;;13.60;8.20;;;18.50;99.90;;;;;;5019948;28;20120;-37
2023/05/12 09:33:12;;;;;;;13.30;8.50;;;18.50;99.90;;;;;;5012077;28;20088;-36
2023/05/12 09:35:39;;;;;;;12.55;8.20;;;18.60;99.90;;;;;;5016514;28;20699;-37
2023/05/12 09:38:09;;;;;;;12.40;7.93;;;18.70;99.90;;;;;;5019500;28;20196;-37
2023/05/12 09:40:35;;;;;;;12.68;8.30;;;18.90;99.90;;;;;;5030865;28;20175;-37
2023/05/12 09:43:04;;;;;;;13.55;8.45;;;18.90;99.90;;;;;;5022780;28;20057;-36
2023/05/12 09:45:37;;;;;;;13.98;7.78;;;18.90;99.90;;;;;;5026382;28;20045;-39
2023/05/12 09:48:12;;;;;;;12.57;7.72;;;18.90;99.90;;;;;;5018695;28;20108;-36
2023/05/12 09:50:51;;;;;;;12.70;7.93;;;19.00;99.90;;;;;;5027204;28;20419;-37
2023/05/12 09:53:19;;;;;;;13.07;8.60;;;19.10;99.90;;;;;;5033008;28;20041;-36
2023/05/12 09:55:48;;;;;;;13.55;8.30;;;19.30;99.90;;;;;;5026842;28;20119;-36
2023/05/12 09:58:18;;;;;;;13.07;7.25;;;19.30;99.90;;;;;;5037409;28;20053;-36
2023/05/12 10:00:44;;;;;;;12.48;7.28;;;19.40;99.90;;;;;;5032321;28;20052;-36
2023/05/12 10:03:15;;;;;;;13.52;8.80;;;19.70;99.90;;;;;;5023263;28;20140;-36
2023/05/12 10:05:47;;;;;;;12.65;8.63;;;20.00;99.90;;;;;;5024084;28;20478;-36
2023/05/12 10:08:18;;;;;;;13.65;8.30;;;20.20;99.90;;;;;;5028891;28;20057;-36
2023/05/12 10:10:47;;;;;;;13.07;7.85;;;20.30;99.90;;;;;;5022338;28;20470;-36
2023/05/12 10:13:13;;;;;;;11.00;7.25;;;20.40;99.90;;;;;;5027245;28;20104;-37
2023/05/12 10:15:40;;;;;;;12.48;7.45;;;20.50;99.90;;;;;;5036445;28;20544;-36
2023/05/12 10:18:06;;;;;;;12.07;7.22;;;20.50;99.90;;;;;;5035469;28;20080;-36
2023/05/12 10:20:33;;;;;;;10.02;6.30;;;20.60;99.90;;;;;;5025065;28;20510;-36
2023/05/12 10:23:00;;;;;;;10.50;6.95;;;20.70;99.90;;;;;;5020733;28;20049;-36
2023/05/12 10:25:27;;;;;;;12.27;7.88;;;20.70;99.90;;;;;;5025561;28;20756;-36
2023/05/12 10:27:54;;;;;;;10.50;6.30;;;20.80;99.90;;;;;;5022688;28;20073;-37
2023/05/12 10:30:21;;;;;;;10.30;7.07;;;20.90;99.90;;;;;;5020386;28;20057;-36
2023/05/12 10:32:47;;;;;;;10.10;6.05;;;21.00;99.90;;;;;;5039566;28;20113;-36
2023/05/12 10:35:13;;;;;;;8.65;5.70;;;21.00;99.90;;;;;;5035562;28;20421;-36
2023/05/12 10:37:41;;;;;;;7.53;4.70;;;21.10;99.90;;;;;;5018700;28;20064;-36
2023/05/12 10:40:07;;;;;;;7.40;4.50;;;21.20;99.90;;;;;;5016220;28;20087;-36
2023/05/12 10:42:41;;;;;;;9.80;6.28;;;21.20;99.90;;;;;;5014841;28;20056;-36
2023/05/12 10:45:18;;;;;;;8.98;5.80;;;21.30;99.90;;;;;;5039370;28;20041;-36
2023/05/12 10:47:45;;;;;;;7.85;5.53;;;21.40;99.90;;;;;;5022378;28;20045;-36
2023/05/12 10:50:15;;;;;;;6.78;4.70;;;21.50;99.90;;;;;;4995714;28;20046;-36
2023/05/12 10:52:52;;;;;;;5.20;3.20;;;21.60;99.90;;;;;;5015933;28;20045;-36
2023/05/12 10:55:33;;;;;;;7.03;3.35;;;21.70;99.90;;;;;;5019722;28;20061;-36
2023/05/12 10:58:10;;;;;;;6.38;2.97;;;21.60;99.90;;;;;;5031716;28;20073;-37
2023/05/12 11:01:05;;;;;;;7.95;3.83;;;21.70;99.90;;;;;;5030696;28;20045;-36
2023/05/12 11:03:32;;;;;;;4.35;2.88;;;21.60;99.90;;;;;;5013124;28;20541;-36
2023/05/12 11:06:05;;;;;;;9.10;2.38;;;21.50;99.90;;;;;;5020746;28;20076;-36
2023/05/12 11:08:33;;;;;;;5.13;3.22;;;21.60;99.90;;;;;;5033054;28;20454;-36
2023/05/12 11:11:02;;;;;;;5.13;3.90;;;21.70;99.90;;;;;;5019999;28;20415;-36
2023/05/12 11:13:28;;;;;;;5.97;3.00;;;21.80;99.90;;;;;;5029630;28;20120;-36
2023/05/12 11:15:57;;;;;;;4.53;2.55;;;22.10;99.90;;;;;;5025343;28;20500;-36
2023/05/12 11:18:22;;;;;;;5.15;2.85;;;22.20;99.90;;;;;;5032432;28;20049;-35
2023/05/12 11:20:49;;;;;;;4.22;2.95;;;22.30;99.90;;;;;;5027076;28;20540;-35
2023/05/12 11:23:28;;;;;;;4.70;2.78;;;22.40;99.90;;;;;;5024427;28;20053;-35
2023/05/12 11:25:55;;;;;;;4.05;2.47;;;22.40;99.90;;;;;;5016479;28;20073;-36
2023/05/12 11:28:21;;;;;;;3.75;2.55;;;22.40;99.90;;;;;;5035107;28;20130;-35
2023/05/12 11:30:51;;;;;;;3.75;2.42;;;22.30;99.90;;;;;;5034005;28;20063;-35
2023/05/12 11:33:20;;;;;;;4.13;2.30;;;22.10;99.90;;;;;;5039162;28;20502;-35
2023/05/12 11:35:47;;;;;;;4.03;2.90;;;22.10;99.90;;;;;;5032885;28;20080;-35
2023/05/12 11:38:17;;;;;;;3.20;2.22;;;22.20;99.90;;;;;;5037887;28;20482;-35
2023/05/12 11:40:43;;;;;;;4.47;2.97;;;22.30;99.90;;;;;;5034139;28;20135;-36
2023/05/12 11:43:10;;;;;;;5.20;3.67;;;22.50;99.90;;;;;;5016309;28;20062;-35
2023/05/12 11:45:36;;;;;;;5.68;3.75;;;22.70;99.90;;;;;;5017523;28;20050;-35
2023/05/12 11:48:06;;;;;;;4.78;3.25;;;22.70;99.90;;;;;;5023570;28;20037;-35
2023/05/12 11:50:32;;;;;;;3.80;2.80;;;22.70;99.90;;;;;;5037088;28;20049;-35
2023/05/12 11:52:58;;;;;;;6.57;2.30;;;22.70;99.90;;;;;;5019835;28;20484;-35
2023/05/12 11:55:24;;;;;;;3.80;2.47;;;22.70;99.90;;;;;;5019487;28;20049;-35
2023/05/12 11:58:00;;;;;;;4.28;3.25;;;22.70;99.90;;;;;;5012943;28;20057;-35
2023/05/12 12:00:31;;;;;;;4.95;2.92;;;22.80;99.90;;;;;;5022019;28;20403;-35
2023/05/12 12:03:11;;;;;;;4.15;2.60;;;22.80;99.90;;;;;;5012639;28;20093;-35
2023/05/12 12:05:38;;;;;;;3.40;2.42;;;22.90;99.90;;;;;;5034531;28;20077;-35
2023/05/12 12:08:06;;;;;;;3.75;2.58;;;23.10;99.90;;;;;;5032122;28;20041;-35
2023/05/12 12:10:32;;;;;;;3.78;2.33;;;23.30;99.90;;;;;;5015223;28;20104;-35
2023/05/12 12:13:00;;;;;;;2.35;1.80;;;23.50;99.90;;;;;;5015399;28;20113;-35
2023/05/12 12:15:26;;;;;;;2.95;1.92;;;23.60;99.90;;;;;;5032348;28;20060;-36
2023/05/12 12:17:51;;;;;;;3.33;2.25;;;23.80;99.90;;;;;;5027298;28;20049;-36
2023/05/12 12:20:17;;;;;;;3.97;2.55;;;24.00;99.90;;;;;;5016612;28;20091;-35
2023/05/12 12:22:43;;;;;;;3.13;2.13;;;24.10;99.90;;;;;;5019403;28;22834;-36
2023/05/12 12:25:09;;;;;;;3.00;2.15;;;24.10;99.90;;;;;;5007170;28;20049;-36
2023/05/12 12:27:35;;;;;;;3.53;2.05;;;24.20;99.90;;;;;;5017392;28;20076;-36
2023/05/12 12:30:01;;;;;;;4.10;2.13;;;24.30;99.90;;;;;;5027528;28;20495;-35
2023/05/12 12:32:27;;;;;;;2.83;2.20;;;24.40;99.90;;;;;;5032219;28;20076;-36
2023/05/12 12:34:58;;;;;;;3.20;2.13;;;24.50;99.90;;;;;;5024867;28;20042;-35